Time;durP1;ratioP1;P1;durP2;ratioP2;P2;SDS_P1;SDS_P2;PMS_P1;PMS_P2;Temp;Humidity;BMP_temperature;BMP_pressure;BME280_temperature;BME280_humidity;BME280_pressure;Samples;Min_cycle;Max_cycle;Signal;HPM_P1;HPM_P2
2023/01/23 00:02:26;;;;;;;25.30;13.82;;;;;;;0.21;100.00;99905.94;5033229;28;20072;-65
2023/01/23 00:05:11;;;;;;;24.45;13.98;;;;;;;0.31;100.00;99910.16;5046683;28;20472;-66
2023/01/23 00:07:55;;;;;;;24.70;13.52;;;;;;;0.29;100.00;99916.19;5047815;28;20045;-66
2023/01/23 00:10:40;;;;;;;26.00;14.43;;;;;;;0.08;100.00;99916.31;5048343;28;20041;-66
2023/01/23 00:13:25;;;;;;;25.63;13.63;;;;;;;0.09;100.00;99910.31;5053764;28;20044;-66
2023/01/23 00:16:16;;;;;;;26.00;15.02;;;;;;;0.04;100.00;99906.91;5054047;28;20043;-66
2023/01/23 00:19:00;;;;;;;22.95;12.20;;;;;;;0.18;100.00;99905.97;5051822;28;20159;-66
2023/01/23 00:21:44;;;;;;;26.20;14.48;;;;;;;0.08;100.00;99906.00;5051378;28;20122;-66
2023/01/23 00:24:29;;;;;;;27.05;14.93;;;;;;;0.15;100.00;99916.31;5041137;28;20048;-66
2023/01/23 00:27:14;;;;;;;26.10;15.23;;;;;;;0.05;100.00;99907.78;5055027;28;20045;-65
2023/01/23 00:29:59;;;;;;;26.00;14.60;;;;;;;0.15;100.00;99911.16;5053268;28;20041;-66
2023/01/23 00:32:43;;;;;;;31.13;17.05;;;;;;;-0.13;100.00;99913.03;5046564;28;20099;-66
2023/01/23 00:35:28;;;;;;;24.63;13.57;;;;;;;-0.02;100.00;99904.38;5035574;28;20075;-66
2023/01/23 00:38:12;;;;;;;26.15;14.57;;;;;;;0.08;100.00;99900.03;5048147;28;20117;-66
2023/01/23 00:40:57;;;;;;;26.08;14.13;;;;;;;0.02;100.00;99905.22;5032296;28;20048;-66
2023/01/23 00:43:43;;;;;;;30.10;16.52;;;;;;;0.21;100.00;99901.63;5033808;28;20045;-66
2023/01/23 00:46:28;;;;;;;28.85;16.33;;;;;;;0.22;100.00;99897.34;5034875;28;20042;-66
2023/01/23 00:49:16;;;;;;;27.80;15.70;;;;;;;0.22;100.00;99895.63;5020136;28;20087;-66
2023/01/23 00:52:01;;;;;;;29.45;15.95;;;;;;;0.22;100.00;99895.63;5046446;28;20040;-66
2023/01/23 00:54:46;;;;;;;27.48;15.68;;;;;;;0.09;100.00;99887.13;5054774;28;20041;-67
2023/01/23 00:57:30;;;;;;;27.95;15.52;;;;;;;0.08;100.00;99879.41;5053259;28;20068;-66
2023/01/23 01:00:16;;;;;;;26.83;14.32;;;;;;;0.17;100.00;99871.59;5049226;28;21385;-65
2023/01/23 01:03:00;;;;;;;31.65;17.55;;;;;;;-0.05;100.00;99869.16;5033473;28;20041;-65
2023/01/23 01:05:47;;;;;;;38.75;19.95;;;;;;;-0.02;100.00;99871.72;5033485;28;20459;-65
2023/01/23 01:08:31;;;;;;;38.25;19.90;;;;;;;-0.29;100.00;99865.91;5031897;28;20037;-65
2023/01/23 01:11:16;;;;;;;35.17;19.33;;;;;;;-0.17;100.00;99851.22;5037461;28;20120;-65
2023/01/23 01:14:01;;;;;;;37.92;19.65;;;;;;;-0.36;100.00;99864.25;5046265;28;20045;-65
2023/01/23 01:16:46;;;;;;;36.60;19.05;;;;;;;-0.29;100.00;99865.03;5038638;28;20479;-66
2023/01/23 01:19:32;;;;;;;30.95;16.90;;;;;;;-0.39;100.00;99866.81;5039189;28;20124;-66
2023/01/23 01:22:17;;;;;;;38.88;20.40;;;;;;;-0.54;100.00;99862.63;5032164;28;20033;-65
2023/01/23 01:25:02;;;;;;;40.17;21.70;;;;;;;-0.43;100.00;99866.00;5032988;28;20384;-65
2023/01/23 01:27:47;;;;;;;38.53;19.98;;;;;;;-0.44;100.00;99863.44;5043964;28;20037;-67
2023/01/23 01:30:32;;;;;;;37.95;20.35;;;;;;;-0.50;100.00;99857.44;5043387;28;20139;-65
2023/01/23 01:33:17;;;;;;;35.95;20.23;;;;;;;-0.54;100.00;99845.44;5041448;28;20070;-66
2023/01/23 01:36:01;;;;;;;33.95;19.55;;;;;;;-0.49;100.00;99850.59;5033332;28;20041;-65
2023/01/23 01:38:47;;;;;;;38.67;19.75;;;;;;;-0.49;100.00;99850.59;5033239;28;20045;-65
2023/01/23 01:41:31;;;;;;;33.17;18.90;;;;;;;-0.58;100.00;99858.34;5033697;28;20046;-65
2023/01/23 01:44:22;;;;;;;39.22;20.73;;;;;;;-0.54;100.00;99865.19;5033081;28;20037;-65
2023/01/23 01:47:08;;;;;;;36.78;20.60;;;;;;;-0.40;100.00;99862.53;5032442;28;20037;-65
2023/01/23 01:50:01;;;;;;;36.63;20.60;;;;;;;-0.38;100.00;99881.41;5033239;28;20099;-66
2023/01/23 01:52:45;;;;;;;43.00;21.60;;;;;;;-0.37;100.00;99880.53;5031878;28;20040;-66
2023/01/23 01:55:31;;;;;;;36.80;20.65;;;;;;;-0.24;100.00;99878.75;5024773;28;20143;-66
2023/01/23 01:58:16;;;;;;;35.00;19.60;;;;;;;-0.13;100.00;99889.84;5034247;28;20048;-66
2023/01/23 02:01:01;;;;;;;36.75;19.95;;;;;;;-0.03;100.00;99898.38;5035707;28;20055;-66
2023/01/23 02:03:49;;;;;;;37.80;19.33;;;;;;;0.04;100.00;99888.88;5036342;28;20492;-65
2023/01/23 02:06:34;;;;;;;36.78;19.88;;;;;;;-0.18;100.00;99881.28;5031632;28;20048;-66
2023/01/23 02:09:25;;;;;;;39.30;20.30;;;;;;;-0.25;100.00;99884.78;5030622;28;20109;-66
2023/01/23 02:12:11;;;;;;;38.40;20.30;;;;;;;-0.32;100.00;99885.66;5031658;28;20365;-66
2023/01/23 02:14:58;;;;;;;40.80;21.45;;;;;;;-0.26;100.00;99883.91;5037115;28;20049;-66
2023/01/23 02:17:44;;;;;;;44.00;23.08;;;;;;;-0.48;100.00;99867.72;5036569;28;20029;-65
2023/01/23 02:20:28;;;;;;;38.22;20.55;;;;;;;-0.44;100.00;99873.72;5016663;28;20064;-65
2023/01/23 02:23:48;;;;;;;40.15;20.13;;;;;;;-0.43;100.00;99876.28;5030548;28;20033;-65
2023/01/23 02:26:40;;;;;;;32.40;17.73;;;;;;;-0.33;100.00;99869.38;5044948;28;20112;-65
2023/01/23 02:29:38;;;;;;;35.55;18.50;;;;;;;-0.22;100.00;99863.28;5039780;28;20508;-65
2023/01/23 02:32:26;;;;;;;35.00;18.92;;;;;;;-0.17;100.00;99859.81;5019605;28;20052;-65
2023/01/23 02:35:18;;;;;;;35.60;19.27;;;;;;;-0.08;100.00;99868.34;5032161;28;20033;-65
2023/01/23 02:38:05;;;;;;;32.20;17.20;;;;;;;-0.12;100.00;99867.53;5030433;28;20038;-65
2023/01/23 02:40:51;;;;;;;36.05;18.80;;;;;;;-0.16;100.00;99876.97;5030755;28;20445;-65
2023/01/23 02:43:38;;;;;;;36.80;19.08;;;;;;;-0.30;100.00;99868.50;5030918;28;20034;-65
2023/01/23 02:46:25;;;;;;;35.50;19.25;;;;;;;-0.03;100.00;99869.16;5056812;28;20098;-67
2023/01/23 02:49:09;;;;;;;34.50;18.05;;;;;;;0.01;100.00;99864.84;5048407;28;20116;-65
2023/01/23 02:51:55;;;;;;;32.67;18.17;;;;;;;-0.30;100.00;99846.16;5050140;28;20180;-66
2023/01/23 02:54:41;;;;;;;28.48;15.65;;;;;;;-0.31;100.00;99831.56;5040228;28;20091;-67
2023/01/23 02:57:26;;;;;;;30.58;16.48;;;;;;;-0.24;100.00;99827.22;5031734;28;20042;-66
2023/01/23 03:00:21;;;;;;;30.17;16.48;;;;;;;-0.38;100.00;99827.34;5045939;28;20113;-66
2023/01/23 03:03:07;;;;;;;31.15;16.67;;;;;;;-0.41;100.00;99817.06;5044217;28;20535;-66
2023/01/23 03:05:53;;;;;;;33.13;17.73;;;;;;;-0.42;100.00;99818.75;5030242;28;20038;-66
2023/01/23 03:08:46;;;;;;;28.48;15.95;;;;;;;-0.27;100.00;99819.53;5050207;28;20082;-66
2023/01/23 03:11:31;;;;;;;30.25;16.80;;;;;;;-0.62;100.00;99817.16;5045474;28;20037;-66
2023/01/23 03:14:20;;;;;;;31.05;16.13;;;;;;;-0.55;100.00;99809.41;5031682;28;20037;-66
2023/01/23 03:17:05;;;;;;;30.10;16.00;;;;;;;-0.43;100.00;99793.88;5037051;28;20044;-66
2023/01/23 03:19:53;;;;;;;28.33;15.73;;;;;;;-0.54;100.00;99780.22;5036736;28;20040;-65
2023/01/23 03:22:38;;;;;;;28.25;15.68;;;;;;;-0.57;100.00;99793.97;5050207;28;20480;-66
2023/01/23 03:25:25;;;;;;;29.67;16.05;;;;;;;-0.66;100.00;99792.31;5044498;28;20598;-66
2023/01/23 03:30:12;;;;;;;28.23;15.48;;;;;;;-0.73;100.00;99800.91;5039262;28;20380;-65
2023/01/23 03:31:16;;;;;;;31.75;15.88;;;;;;;-0.67;100.00;99815.50;5031172;28;20477;-65
2023/01/23 03:34:00;;;;;;;26.58;14.88;;;;;;;-0.54;100.00;99811.13;5052670;28;20064;-64
2023/01/23 03:36:47;;;;;;;26.80;15.40;;;;;;;-0.67;100.00;99807.78;5037029;28;20140;-65
2023/01/23 03:42:37;;;;;;;28.23;15.07;;;;;;;-0.78;100.00;99806.09;5021812;28;20042;-65
2023/01/23 03:45:24;;;;;;;29.02;15.10;;;;;;;-0.73;100.00;99808.63;5049278;28;20409;-65
2023/01/23 03:48:09;;;;;;;29.08;14.75;;;;;;;-0.76;100.00;99799.22;5061043;28;20047;-66
2023/01/23 03:50:53;;;;;;;26.23;13.82;;;;;;;-0.93;100.00;99785.59;5051723;28;20396;-66
2023/01/23 03:53:39;;;;;;;26.98;14.05;;;;;;;-0.88;100.00;99784.69;5042128;28;20037;-66
2023/01/23 03:56:24;;;;;;;29.15;15.43;;;;;;;-0.99;100.00;99786.47;5055708;28;20067;-65
2023/01/23 03:59:09;;;;;;;26.92;14.43;;;;;;;-0.96;100.00;99791.59;5050507;28;20041;-65
2023/01/23 04:01:54;;;;;;;26.55;14.27;;;;;;;-1.01;100.00;99812.22;5032072;28;20151;-66
2023/01/23 04:04:41;;;;;;;22.73;12.20;;;;;;;-1.01;100.00;99819.06;5036425;28;20037;-65
2023/01/23 04:07:26;;;;;;;24.83;12.88;;;;;;;-1.07;100.00;99827.66;5054475;28;20095;-66
2023/01/23 04:10:11;;;;;;;24.67;13.13;;;;;;;-1.25;100.00;99816.59;5054121;28;20037;-65
2023/01/23 04:12:55;;;;;;;25.85;13.85;;;;;;;-1.15;100.00;99807.13;5025210;28;20069;-65
2023/01/23 04:15:41;;;;;;;28.10;15.57;;;;;;;-1.20;100.00;99806.28;5048588;28;20033;-64
2023/01/23 04:18:26;;;;;;;28.42;14.35;;;;;;;-1.13;100.00;99818.25;5048110;28;20048;-64
2023/01/23 04:21:11;;;;;;;25.67;13.45;;;;;;;-1.16;100.00;99809.72;5045203;28;20120;-64
2023/01/23 04:23:56;;;;;;;27.77;15.60;;;;;;;-1.16;100.00;99802.00;5054336;28;20037;-64
2023/01/23 04:26:41;;;;;;;27.60;14.45;;;;;;;-1.15;100.00;99801.13;5033311;28;20044;-66
2023/01/23 04:29:25;;;;;;;27.40;14.13;;;;;;;-1.15;100.00;99801.13;5037482;28;20953;-65
2023/01/23 04:32:11;;;;;;;24.60;13.88;;;;;;;-1.14;100.00;99782.25;5047125;28;20045;-65
2023/01/23 04:35:02;;;;;;;27.20;13.38;;;;;;;-1.29;100.00;99783.19;5028698;28;20160;-64
2023/01/23 04:37:48;;;;;;;23.27;12.85;;;;;;;-1.32;100.00;99784.03;5050696;28;20441;-64
2023/01/23 04:40:33;;;;;;;25.83;14.20;;;;;;;-1.22;100.00;99784.00;5035024;28;20041;-64
2023/01/23 04:43:20;;;;;;;28.60;13.57;;;;;;;-1.23;100.00;99778.00;5033563;28;20049;-65
2023/01/23 04:46:07;;;;;;;26.02;14.25;;;;;;;-1.20;100.00;99778.00;5029939;28;20036;-64
2023/01/23 04:49:04;;;;;;;25.45;13.30;;;;;;;-1.23;100.00;99778.00;5043715;28;20037;-64
2023/01/23 04:51:52;;;;;;;30.33;15.15;;;;;;;-1.22;100.00;99784.00;5029474;28;20053;-64
2023/01/23 04:54:41;;;;;;;27.67;15.93;;;;;;;-1.23;100.00;99775.44;5034802;28;20090;-64
2023/01/23 04:57:27;;;;;;;29.88;15.98;;;;;;;-1.31;100.00;99784.88;5056123;28;20392;-64
2023/01/23 05:00:20;;;;;;;26.45;13.60;;;;;;;-1.25;100.00;99783.16;5033031;28;20392;-64
2023/01/23 05:03:04;;;;;;;28.40;15.30;;;;;;;-1.29;100.00;99781.44;5017270;28;20040;-63
2023/01/23 05:05:50;;;;;;;30.10;15.50;;;;;;;-1.36;100.00;99787.47;5031972;28;20440;-64
2023/01/23 05:08:35;;;;;;;25.73;14.65;;;;;;;-1.35;100.00;99811.47;5032621;28;20053;-64
2023/01/23 05:11:41;;;;;;;26.55;14.23;;;;;;;-1.34;100.00;99805.47;5046206;28;20120;-64
2023/01/23 05:14:28;;;;;;;29.17;14.93;;;;;;;-1.39;100.00;99790.91;5029947;28;20080;-64
2023/01/23 05:17:13;;;;;;;25.08;13.88;;;;;;;-1.50;100.00;99808.94;5047176;28;20082;-64
2023/01/23 05:20:04;;;;;;;27.88;14.95;;;;;;;-1.50;100.00;99795.22;5045986;28;20472;-64
2023/01/23 05:22:51;;;;;;;30.52;15.77;;;;;;;-1.50;100.00;99797.78;5030942;28;20052;-66
2023/01/23 05:25:37;;;;;;;28.05;15.48;;;;;;;-1.50;100.00;99792.63;5044747;28;20049;-65
2023/01/23 05:28:22;;;;;;;31.13;15.65;;;;;;;-1.46;100.00;99790.91;5040687;28;20174;-65
2023/01/23 05:31:12;;;;;;;30.92;15.50;;;;;;;-1.45;100.00;99797.78;5051140;28;20091;-65
2023/01/23 05:34:02;;;;;;;30.00;16.42;;;;;;;-1.33;100.00;99814.88;5035993;28;20079;-64
2023/01/23 05:36:47;;;;;;;30.80;16.40;;;;;;;-1.34;100.00;99819.19;5051188;28;20045;-65
2023/01/23 05:39:32;;;;;;;29.88;14.63;;;;;;;-1.19;100.00;99836.28;5043668;28;20064;-63
2023/01/23 05:42:20;;;;;;;29.63;15.35;;;;;;;-1.14;100.00;99834.53;5036189;28;20065;-65
2023/01/23 05:45:18;;;;;;;28.08;15.13;;;;;;;-0.97;100.00;99843.94;5036169;28;20112;-64
2023/01/23 05:48:03;;;;;;;29.15;15.00;;;;;;;-0.90;100.00;99847.34;5042889;28;20124;-64
2023/01/23 05:50:49;;;;;;;29.50;15.00;;;;;;;-0.98;100.00;99834.50;5052908;28;20041;-65
2023/01/23 05:53:34;;;;;;;24.27;12.88;;;;;;;-0.13;100.00;99827.13;5032488;28;20037;-68
2023/01/23 05:56:18;;;;;;;25.85;14.10;;;;;;;0.61;100.00;99832.53;5030788;28;20550;-65
2023/01/23 05:59:26;;;;;;;26.33;13.73;;;;;;;-0.41;100.00;99833.34;5036367;28;20121;-65
2023/01/23 06:02:30;;;;;;;20.55;11.95;;;;;;;-0.76;100.00;99843.00;5037939;28;20068;-66
2023/01/23 06:05:39;;;;;;;23.77;12.65;;;;;;;-0.71;100.00;99842.09;5039965;28;20488;-66
2023/01/23 06:08:29;;;;;;;22.83;12.07;;;;;;;-0.94;100.00;99831.06;5032712;28;20120;-65
2023/01/23 06:11:14;;;;;;;24.80;12.48;;;;;;;-0.78;100.00;99848.97;5032957;28;20107;-66
2023/01/23 06:13:59;;;;;;;22.30;11.98;;;;;;;-0.73;100.00;99854.97;5032849;28;20037;-67
2023/01/23 06:16:43;;;;;;;24.15;12.60;;;;;;;-0.55;100.00;99859.19;5018536;28;20424;-64
2023/01/23 06:19:28;;;;;;;25.25;12.55;;;;;;;-0.50;100.00;99872.91;5032558;28;20116;-65
2023/01/23 06:22:13;;;;;;;23.98;12.40;;;;;;;-0.59;100.00;99861.78;5032532;28;20049;-66
2023/01/23 06:25:20;;;;;;;25.17;12.65;;;;;;;0.98;100.00;99864.78;5032288;28;20041;-65
2023/01/23 06:28:05;;;;;;;21.77;12.68;;;;;;;0.31;100.00;99868.06;5030266;28;20056;-65
2023/01/23 06:30:52;;;;;;;22.67;12.73;;;;;;;-0.29;100.00;99881.34;5032429;28;20088;-65
2023/01/23 06:33:50;;;;;;;21.33;12.18;;;;;;;-0.38;100.00;99871.94;5018009;28;20034;-66
2023/01/23 06:36:36;;;;;;;19.98;10.35;;;;;;;-0.23;100.00;99880.47;5031848;28;20047;-65
2023/01/23 06:39:21;;;;;;;23.15;11.45;;;;;;;-0.23;100.00;99871.88;5032704;28;20416;-66
2023/01/23 06:42:09;;;;;;;23.00;12.27;;;;;;;-0.56;100.00;99862.63;5043118;28;20119;-65
2023/01/23 06:44:57;;;;;;;24.38;12.80;;;;;;;-0.46;100.00;99868.59;5049947;28;20068;-66
2023/01/23 06:47:44;;;;;;;22.55;11.55;;;;;;;-0.40;100.00;99881.44;5030862;28;20094;-65
2023/01/23 06:50:29;;;;;;;23.50;12.00;;;;;;;-0.13;100.00;99895.00;5031705;28;20056;-66
2023/01/23 06:53:16;;;;;;;21.50;12.38;;;;;;;-0.15;100.00;99904.44;5031500;28;20042;-65
2023/01/23 06:56:07;;;;;;;23.48;12.27;;;;;;;-0.48;100.00;99901.22;5045664;28;20038;-65
2023/01/23 06:58:54;;;;;;;23.58;12.60;;;;;;;-0.51;100.00;99901.22;5043513;28;20041;-65
2023/01/23 07:01:44;;;;;;;22.20;12.02;;;;;;;-0.76;100.00;99888.44;5018492;28;20049;-66
2023/01/23 07:04:44;;;;;;;24.35;12.98;;;;;;;-0.93;100.00;99863.63;5030926;28;20037;-67
2023/01/23 07:07:29;;;;;;;23.88;12.75;;;;;;;-0.66;100.00;99878.97;5031763;28;20461;-66
2023/01/23 07:10:15;;;;;;;23.33;13.30;;;;;;;-0.73;100.00;99892.75;5032068;28;20033;-66
2023/01/23 07:13:00;;;;;;;22.95;12.18;;;;;;;-0.55;100.00;99902.94;5047090;28;20048;-66
2023/01/23 07:15:46;;;;;;;21.70;11.85;;;;;;;-0.23;100.00;99902.78;5033865;28;20045;-66
2023/01/23 07:18:32;;;;;;;25.98;13.73;;;;;;;-0.26;100.00;99901.94;5022013;28;20045;-65
2023/01/23 07:21:19;;;;;;;20.88;11.10;;;;;;;-0.10;100.00;99908.72;5051516;28;20040;-66
2023/01/23 07:24:04;;;;;;;21.73;11.70;;;;;;;-0.09;100.00;99906.16;5055777;28;20033;-66
2023/01/23 07:26:49;;;;;;;22.73;12.18;;;;;;;-0.09;100.00;99910.44;5056171;28;20045;-66
2023/01/23 07:29:34;;;;;;;22.20;11.85;;;;;;;0.02;100.00;99911.22;5040673;28;20041;-66
2023/01/23 07:32:18;;;;;;;23.02;11.98;;;;;;;0.03;100.00;99915.53;5046971;28;20041;-66
2023/01/23 07:35:04;;;;;;;130.38;20.77;;;;;;;0.01;100.00;99912.09;5040724;28;20087;-66
2023/01/23 07:37:49;;;;;;;70.63;17.70;;;;;;;-0.14;100.00;99908.75;5054103;28;20045;-65
2023/01/23 07:40:37;;;;;;;75.85;17.00;;;;;;;-0.14;100.00;99910.47;5054704;28;20055;-66
2023/01/23 07:43:22;;;;;;;39.70;12.88;;;;;;;-0.08;100.00;99907.00;5053863;28;20124;-66
2023/01/23 07:46:08;;;;;;;53.08;14.85;;;;;;;0.05;100.00;99913.78;5070169;28;20344;-66
2023/01/23 07:48:55;;;;;;;22.38;11.43;;;;;;;0.13;100.00;99918.03;5071275;28;20123;-66
2023/01/23 07:51:39;;;;;;;96.55;17.95;;;;;;;-0.06;100.00;99919.00;5057599;28;20040;-66
2023/01/23 07:54:26;;;;;;;61.40;15.20;;;;;;;0.01;100.00;99917.25;5073671;28;20182;-66
2023/01/23 07:57:11;;;;;;;59.20;15.70;;;;;;;0.13;100.00;99916.31;5072013;28;20119;-67
2023/01/23 07:59:55;;;;;;;26.00;13.30;;;;;;;0.04;100.00;99924.09;5071276;28;20053;-66
2023/01/23 08:02:40;;;;;;;34.95;13.68;;;;;;;-0.04;100.00;99917.28;5053255;28;20136;-66
2023/01/23 08:05:25;;;;;;;20.80;11.65;;;;;;;0.11;100.00;99916.31;5058991;28;20060;-66
2023/01/23 08:08:09;;;;;;;26.50;11.00;;;;;;;0.17;100.00;99919.72;5071556;28;20419;-66
2023/01/23 08:10:54;;;;;;;22.38;11.25;;;;;;;0.15;100.00;99924.03;5073806;28;20044;-65
2023/01/23 08:13:39;;;;;;;24.10;11.88;;;;;;;0.18;100.00;99921.44;5035696;28;20046;-65
2023/01/23 08:16:25;;;;;;;22.85;11.20;;;;;;;0.08;100.00;99925.81;5034896;28;20042;-66
2023/01/23 08:19:09;;;;;;;22.85;12.02;;;;;;;-0.07;100.00;99922.47;5033242;28;20041;-65
2023/01/23 08:21:54;;;;;;;26.50;12.45;;;;;;;-0.11;100.00;99928.47;5037972;28;20029;-65
2023/01/23 08:24:38;;;;;;;26.55;12.23;;;;;;;-0.09;100.00;99926.75;5052504;28;20041;-65
2023/01/23 08:27:23;;;;;;;63.28;16.02;;;;;;;0.14;100.00;99928.34;5036480;28;20037;-65
2023/01/23 08:30:09;;;;;;;307.98;40.47;;;;;;;0.01;100.00;99930.13;5053062;28;20384;-65
2023/01/23 08:32:54;;;;;;;22.85;12.13;;;;;;;0.10;100.00;99931.78;5038458;28;20033;-65
2023/01/23 08:35:38;;;;;;;24.27;11.13;;;;;;;0.00;100.00;99928.44;5033516;28;20037;-65
2023/01/23 08:38:27;;;;;;;22.88;12.63;;;;;;;0.31;100.00;99928.19;5034769;28;20091;-66
2023/01/23 08:41:12;;;;;;;27.73;11.70;;;;;;;0.22;100.00;99928.28;5034370;28;20045;-66
2023/01/23 08:44:00;;;;;;;24.13;12.10;;;;;;;0.21;100.00;99932.56;5031520;28;20037;-66
2023/01/23 08:46:45;;;;;;;193.88;27.08;;;;;;;0.34;100.00;99923.00;5054497;28;20059;-65
2023/01/23 08:49:58;;;;;;;34.63;12.70;;;;;;;0.40;100.00;99934.16;5052239;28;20122;-66
2023/01/23 08:52:45;;;;;;;132.93;21.60;;;;;;;0.53;100.00;99928.03;5052658;28;20045;-66
2023/01/23 08:55:34;;;;;;;34.22;11.70;;;;;;;0.93;100.00;99938.84;5035630;28;20033;-65
2023/01/23 08:58:21;;;;;;;27.40;11.50;;;;;;;0.67;100.00;99922.75;5047495;28;20048;-65
2023/01/23 09:01:14;;;;;;;20.08;10.23;;;;;;;0.95;100.00;99931.94;5053932;28;20037;-65
2023/01/23 09:03:58;;;;;;;54.42;14.13;;;;;;;0.90;100.00;99937.16;5043776;28;20115;-66
2023/01/23 09:06:43;;;;;;;26.13;10.35;;;;;;;1.00;100.00;99942.25;5039777;28;20033;-65
2023/01/23 09:09:28;;;;;;;25.98;11.00;;;;;;;0.63;100.00;99956.31;5032957;28;20065;-66
2023/01/23 09:12:13;;;;;;;22.92;9.88;;;;;;;0.81;100.00;99953.59;5032892;28;20068;-66
2023/01/23 09:14:58;;;;;;;25.48;11.07;;;;;;;1.25;100.00;99955.72;5033415;28;20440;-66
2023/01/23 09:17:44;;;;;;;27.70;10.00;;;;;;;1.28;100.00;99949.66;5030864;28;20040;-67
2023/01/23 09:20:29;;;;;;;20.23;10.35;;;;;;;1.21;100.00;99944.56;5037192;28;20047;-66
2023/01/23 09:23:14;;;;;;;23.05;10.48;;;;;;;1.14;100.00;99953.28;5032163;28;20179;-65
2023/01/23 09:26:03;;;;;;;22.08;10.02;;;;;;;1.05;100.00;99948.19;5033465;28;20041;-65
2023/01/23 09:28:48;;;;;;;22.00;10.07;;;;;;;1.19;100.00;99950.63;5033406;28;20118;-66
2023/01/23 09:31:33;;;;;;;16.08;8.85;;;;;;;1.21;100.00;99954.03;5031652;28;20053;-66
2023/01/23 09:34:19;;;;;;;19.08;9.73;;;;;;;1.25;100.00;99953.16;5032003;28;20045;-67
2023/01/23 09:37:04;;;;;;;20.63;10.00;;;;;;;1.20;100.00;99948.03;5039097;28;20116;-67
2023/01/23 09:39:48;;;;;;;20.38;10.45;;;;;;;1.20;100.00;99955.78;5052245;28;20072;-66
2023/01/23 09:42:33;;;;;;;27.65;9.75;;;;;;;1.46;100.00;99952.06;5052183;28;20044;-66
2023/01/23 09:45:23;;;;;;;21.08;9.43;;;;;;;1.86;100.00;99954.16;5050946;28;20048;-66
2023/01/23 09:48:13;;;;;;;19.02;9.02;;;;;;;1.64;100.00;99954.41;5052242;28;20044;-65
2023/01/23 09:51:04;;;;;;;17.20;8.65;;;;;;;1.77;100.00;99949.94;5052395;28;20044;-66
2023/01/23 09:53:48;;;;;;;16.40;9.57;;;;;;;1.38;100.00;99938.38;5054548;28;20071;-65
2023/01/23 09:56:40;;;;;;;21.70;9.10;;;;;;;1.56;100.00;99944.19;5038617;28;20033;-65
2023/01/23 09:59:36;;;;;;;17.58;9.32;;;;;;;1.31;100.00;99940.16;5031870;28;20041;-65
2023/01/23 10:02:22;;;;;;;23.95;9.50;;;;;;;1.50;100.00;99944.25;5032408;28;20094;-66
2023/01/23 10:05:12;;;;;;;20.25;9.30;;;;;;;1.62;100.00;99940.69;5033935;28;20045;-66
2023/01/23 10:08:18;;;;;;;21.08;9.60;;;;;;;1.56;100.00;99937.28;5031200;28;20121;-66
2023/01/23 10:11:09;;;;;;;17.25;9.15;;;;;;;1.71;100.00;99937.97;5031400;28;20041;-66
2023/01/23 10:14:14;;;;;;;20.73;9.75;;;;;;;1.68;100.00;99935.44;5049824;28;20116;-65
2023/01/23 10:17:25;;;;;;;18.52;9.10;;;;;;;1.86;100.00;99931.72;5041875;28;20033;-65
2023/01/23 10:20:32;;;;;;;16.17;9.10;;;;;;;1.50;100.00;99932.22;5045407;28;20127;-65
2023/01/23 10:24:19;;;;;;;21.35;10.10;;;;;;;1.40;100.00;99939.22;5053592;28;20068;-66
2023/01/23 10:27:17;;;;;;;15.07;9.25;;;;;;;1.79;100.00;99941.31;5028056;28;20505;-66
2023/01/23 10:30:18;;;;;;;16.45;9.38;;;;;;;1.81;100.00;99938.72;5016235;28;20048;-67
2023/01/23 10:33:17;;;;;;;15.75;8.55;;;;;;;2.13;100.00;99928.75;5021546;28;20037;-65
2023/01/23 10:36:12;;;;;;;17.25;9.48;;;;;;;1.71;100.00;99935.38;5015504;28;20073;-65
2023/01/23 10:39:01;;;;;;;16.35;8.10;;;;;;;1.97;100.00;99926.41;5012538;28;20516;-66
2023/01/23 10:41:45;;;;;;;13.30;7.90;;;;;;;2.19;100.00;99924.34;5017403;28;20465;-67
2023/01/23 10:44:30;;;;;;;16.00;8.13;;;;;;;2.36;100.00;99928.41;5028786;28;20048;-67
2023/01/23 10:47:35;;;;;;;15.23;7.85;;;;;;;3.03;100.00;99916.91;5011864;28;20042;-65
2023/01/23 10:50:34;;;;;;;13.27;8.15;;;;;;;3.22;100.00;99921.72;5015450;28;20132;-65
2023/01/23 10:53:21;;;;;;;15.43;8.70;;;;;;;2.98;100.00;99915.28;5011020;28;20042;-65
2023/01/23 10:56:16;;;;;;;14.68;8.50;;;;;;;3.32;100.00;99919.81;5027838;28;20255;-65
2023/01/23 10:59:01;;;;;;;13.43;7.70;;;;;;;3.31;99.81;99913.78;5014277;28;20536;-65
2023/01/23 11:02:15;;;;;;;14.02;7.53;;;;;;;3.57;98.23;99914.97;5003758;28;20184;-66
2023/01/23 11:05:03;;;;;;;13.63;7.93;;;;;;;3.40;98.41;99901.50;5037194;28;20041;-65
2023/01/23 11:07:53;;;;;;;13.65;8.38;;;;;;;3.21;97.83;99896.72;5036739;28;20555;-66
2023/01/23 11:10:38;;;;;;;14.20;8.55;;;;;;;3.06;100.00;99903.03;5033191;28;20081;-67
2023/01/23 11:13:28;;;;;;;15.57;8.73;;;;;;;3.06;99.92;99896.16;5037862;28;20036;-65
2023/01/23 11:16:15;;;;;;;13.63;7.72;;;;;;;3.25;100.00;99895.75;5037359;28;20366;-65
2023/01/23 11:19:10;;;;;;;14.05;7.57;;;;;;;3.25;100.00;99895.75;5045378;28;20039;-66
2023/01/23 11:22:02;;;;;;;14.63;8.75;;;;;;;2.98;100.00;99891.97;5034094;28;20037;-66
2023/01/23 11:24:47;;;;;;;13.57;8.50;;;;;;;2.63;100.00;99899.53;5035677;28;20053;-65
2023/01/23 11:27:32;;;;;;;14.50;8.55;;;;;;;3.15;100.00;99889.91;5039528;28;20476;-65
2023/01/23 11:30:27;;;;;;;15.25;8.82;;;;;;;3.17;100.00;99887.28;5055114;28;20433;-65
2023/01/23 11:33:24;;;;;;;14.77;8.68;;;;;;;2.70;100.00;99883.00;5035988;28;20404;-65
2023/01/23 11:36:17;;;;;;;14.93;8.15;;;;;;;2.50;100.00;99880.78;5042309;28;20029;-65
2023/01/23 11:39:20;;;;;;;13.52;8.48;;;;;;;2.98;100.00;99882.50;5056447;28;20468;-65
2023/01/23 11:42:10;;;;;;;14.40;8.25;;;;;;;2.83;100.00;99871.53;5033762;28;20427;-65
2023/01/23 11:44:58;;;;;;;16.42;9.02;;;;;;;2.72;100.00;99881.25;5036566;28;20484;-66
2023/01/23 11:48:05;;;;;;;12.70;8.02;;;;;;;3.07;100.00;99879.72;5042222;28;20038;-66
2023/01/23 11:50:54;;;;;;;13.15;8.18;;;;;;;3.15;100.00;99870.94;5043409;28;20037;-65
2023/01/23 11:53:44;;;;;;;13.95;7.78;;;;;;;3.22;100.00;99872.53;5054352;28;20037;-65
2023/01/23 11:56:51;;;;;;;12.30;7.07;;;;;;;3.56;100.00;99887.34;5027707;28;20041;-65
2023/01/23 11:59:51;;;;;;;13.80;7.97;;;;;;;3.78;100.00;99876.53;5048143;28;20033;-66
2023/01/23 12:02:54;;;;;;;12.57;8.15;;;;;;;3.64;98.53;99873.38;5053633;28;20042;-66
2023/01/23 12:06:01;;;;;;;11.65;7.05;;;;;;;3.51;99.69;99875.41;5039249;28;20061;-65
2023/01/23 12:08:56;;;;;;;14.02;8.07;;;;;;;3.39;100.00;99871.31;5042981;28;20166;-67
2023/01/23 12:11:57;;;;;;;11.88;7.18;;;;;;;3.75;100.00;99866.22;5035332;28;20087;-65
2023/01/23 12:15:05;;;;;;;13.98;6.97;;;;;;;4.66;95.34;99883.06;5046936;28;20044;-66
2023/01/23 12:18:29;;;;;;;12.82;7.38;;;;;;;4.29;95.30;99865.84;5046887;28;20118;-65
2023/01/23 12:21:19;;;;;;;11.35;7.38;;;;;;;4.19;95.99;99867.81;5054433;28;20052;-65
2023/01/23 12:24:39;;;;;;;15.38;8.23;;;;;;;3.96;95.40;99873.53;5053547;28;20430;-65
2023/01/23 12:27:37;;;;;;;13.02;8.35;;;;;;;4.25;93.16;99864.19;5046236;28;20196;-66
2023/01/23 12:31:14;;;;;;;14.57;7.70;;;;;;;4.90;91.88;99856.47;5019506;28;20108;-65
2023/01/23 12:34:22;;;;;;;12.77;7.57;;;;;;;4.50;93.50;99860.97;5035133;28;20128;-65
2023/01/23 12:37:12;;;;;;;12.43;8.25;;;;;;;4.96;93.36;99856.28;5041201;28;20079;-66
2023/01/23 12:40:06;;;;;;;12.80;7.45;;;;;;;6.04;87.96;99859.19;5053015;28;20442;-64
2023/01/23 12:43:03;;;;;;;13.15;7.43;;;;;;;5.78;85.96;99858.25;5054617;28;20371;-65
2023/01/23 12:45:58;;;;;;;10.05;6.43;;;;;;;5.63;87.32;99861.34;5035837;28;20048;-65
2023/01/23 12:49:02;;;;;;;16.08;7.53;;;;;;;6.62;83.86;99861.66;5033622;28;20037;-66
2023/01/23 12:51:55;;;;;;;11.27;7.13;;;;;;;5.99;84.13;99858.47;5032662;28;20045;-67
2023/01/23 12:54:59;;;;;;;12.68;6.53;;;;;;;6.75;86.66;99862.94;5033019;28;20388;-65
2023/01/23 12:57:50;;;;;;;20.27;7.68;;;;;;;6.35;85.32;99857.31;5046127;28;20056;-66
2023/01/23 13:01:02;;;;;;;10.02;6.28;;;;;;;6.63;83.20;99852.94;5031854;28;20045;-65
2023/01/23 13:04:10;;;;;;;11.15;6.95;;;;;;;6.55;82.70;99849.72;5033723;28;20368;-65